createdAt,value
2022-10-01T00:02:14.777Z,100.00
2022-10-01T00:04:47.202Z,100.00
2022-10-01T00:07:16.373Z,100.00
2022-10-01T00:09:45.646Z,100.00
2022-10-01T00:12:16.936Z,100.00
2022-10-01T00:14:48.609Z,100.00
2022-10-01T00:17:18.139Z,100.00
2022-10-01T00:19:47.030Z,100.00
2022-10-01T00:22:15.961Z,100.00
2022-10-01T00:24:45.534Z,100.00
2022-10-01T00:27:15.945Z,100.00
2022-10-01T00:29:45.559Z,100.00
2022-10-01T00:32:14.604Z,100.00
2022-10-01T00:34:43.391Z,100.00
2022-10-01T00:37:12.643Z,100.00
2022-10-01T00:39:41.452Z,100.00
2022-10-01T00:42:20.311Z,100.00
2022-10-01T00:44:50.277Z,100.00
2022-10-01T00:47:30.656Z,100.00
2022-10-01T00:50:09.051Z,100.00
2022-10-01T00:52:42.442Z,100.00
2022-10-01T00:55:18.321Z,100.00
2022-10-01T00:57:48.983Z,100.00
2022-10-01T01:00:17.848Z,100.00
2022-10-01T01:02:46.596Z,100.00
2022-10-01T01:05:15.965Z,100.00
2022-10-01T01:07:50.156Z,100.00
2022-10-01T01:10:26.547Z,100.00
2022-10-01T01:13:13.586Z,100.00
2022-10-01T01:15:51.977Z,100.00
2022-10-01T01:18:31.349Z,100.00
2022-10-01T01:21:18.966Z,100.00
2022-10-01T01:24:23.116Z,100.00
2022-10-01T01:27:13.822Z,100.00
2022-10-01T01:29:58.035Z,100.00
2022-10-01T01:32:33.965Z,100.00
2022-10-01T01:35:08.480Z,100.00
2022-10-01T01:37:43.504Z,100.00
2022-10-01T01:40:16.114Z,100.00
2022-10-01T01:42:48.492Z,100.00
2022-10-01T01:45:25.719Z,100.00
2022-10-01T01:47:58.543Z,100.00
2022-10-01T01:50:34.870Z,100.00
2022-10-01T01:53:03.872Z,100.00
2022-10-01T01:55:36.681Z,100.00
2022-10-01T01:58:05.657Z,100.00
2022-10-01T02:00:36.736Z,100.00
2022-10-01T02:03:06.925Z,100.00
2022-10-01T02:05:45.621Z,100.00
2022-10-01T02:08:40.566Z,100.00
2022-10-01T02:11:25.040Z,100.00
2022-10-01T02:14:16.088Z,100.00
2022-10-01T02:16:58.089Z,100.00
2022-10-01T02:19:39.886Z,100.00
2022-10-01T02:22:18.646Z,100.00
2022-10-01T02:24:53.920Z,100.00
2022-10-01T02:27:30.743Z,100.00
2022-10-01T02:30:08.128Z,100.00
2022-10-01T02:32:41.714Z,100.00
2022-10-01T02:35:16.808Z,100.00
2022-10-01T02:37:49.440Z,100.00
2022-10-01T02:40:26.479Z,100.00
2022-10-01T02:43:03.952Z,100.00
2022-10-01T02:45:35.757Z,100.00
2022-10-01T02:48:11.529Z,100.00
2022-10-01T02:50:50.548Z,100.00
2022-10-01T02:53:28.831Z,100.00
2022-10-01T02:55:59.541Z,100.00
2022-10-01T02:58:27.861Z,100.00
2022-10-01T03:00:56.700Z,100.00
2022-10-01T03:03:27.608Z,100.00
2022-10-01T03:05:56.159Z,100.00
2022-10-01T03:08:25.426Z,100.00
2022-10-01T03:10:54.271Z,100.00
2022-10-01T03:13:23.691Z,100.00
2022-10-01T03:15:52.964Z,100.00
2022-10-01T03:18:22.234Z,100.00
2022-10-01T03:20:52.847Z,100.00
2022-10-01T03:23:21.556Z,100.00
2022-10-01T03:25:50.465Z,100.00
2022-10-01T03:28:19.395Z,100.00
2022-10-01T03:30:48.309Z,100.00
2022-10-01T03:33:17.672Z,100.00
2022-10-01T03:35:46.883Z,100.00
2022-10-01T03:38:17.445Z,100.00
2022-10-01T03:40:46.497Z,100.00
2022-10-01T03:43:15.654Z,100.00
2022-10-01T03:45:44.414Z,100.00
2022-10-01T03:48:13.162Z,100.00
2022-10-01T03:50:42.004Z,100.00
2022-10-01T03:53:11.644Z,100.00
2022-10-01T03:55:41.735Z,100.00
2022-10-01T03:58:10.865Z,100.00
2022-10-01T04:00:39.855Z,100.00
2022-10-01T04:03:09.059Z,100.00
2022-10-01T04:05:38.041Z,100.00
2022-10-01T04:08:06.788Z,100.00
2022-10-01T04:10:36.089Z,99.52
2022-10-01T04:13:07.352Z,99.51
2022-10-01T04:15:36.562Z,99.96
2022-10-01T04:18:09.677Z,99.91
2022-10-01T04:20:40.556Z,99.53
2022-10-01T04:23:10.162Z,99.36
2022-10-01T04:25:39.466Z,99.37
2022-10-01T04:28:13.785Z,99.29
2022-10-01T04:30:44.999Z,99.46
2022-10-01T04:33:16.919Z,98.96
2022-10-01T04:35:46.067Z,98.56
2022-10-01T04:38:18.371Z,98.50
2022-10-01T04:40:48.450Z,98.54
2022-10-01T04:43:19.293Z,98.46
2022-10-01T04:45:47.915Z,98.54
2022-10-01T04:48:16.609Z,98.31
2022-10-01T04:50:45.745Z,98.42
2022-10-01T04:53:14.648Z,97.57
2022-10-01T04:55:44.497Z,97.85
2022-10-01T04:58:13.449Z,97.69
2022-10-01T05:00:43.841Z,97.22
2022-10-01T05:03:12.747Z,97.51
2022-10-01T05:05:41.488Z,97.82
2022-10-01T05:08:10.536Z,96.93
2022-10-01T05:10:39.534Z,96.88
2022-10-01T05:13:08.540Z,96.74
2022-10-01T05:15:37.992Z,96.50
2022-10-01T05:18:09.379Z,96.36
2022-10-01T05:20:39.600Z,95.35
2022-10-01T05:23:08.388Z,95.47
2022-10-01T05:25:37.108Z,95.33
2022-10-01T05:28:05.982Z,94.77
2022-10-01T05:30:36.100Z,94.84
2022-10-01T05:33:07.772Z,94.54
2022-10-01T05:35:36.795Z,94.71
2022-10-01T05:38:05.727Z,95.22
2022-10-01T05:40:35.142Z,95.18
2022-10-01T05:43:07.303Z,95.49
2022-10-01T05:45:36.055Z,95.42
2022-10-01T05:48:08.866Z,94.88
2022-10-01T05:50:44.423Z,95.08
2022-10-01T05:53:16.271Z,94.86
2022-10-01T05:55:45.620Z,94.59
2022-10-01T05:58:15.790Z,94.50
2022-10-01T06:00:45.430Z,94.65
2022-10-01T06:03:15.887Z,94.15
2022-10-01T06:05:46.269Z,93.84
2022-10-01T06:08:15.400Z,93.09
2022-10-01T06:10:44.661Z,93.15
2022-10-01T06:13:17.979Z,92.71
2022-10-01T06:15:47.869Z,92.85
2022-10-01T06:18:18.247Z,92.65
2022-10-01T06:20:47.634Z,93.02
2022-10-01T06:23:17.180Z,92.83
2022-10-01T06:25:46.255Z,92.73
2022-10-01T06:28:15.829Z,92.70
2022-10-01T06:30:45.151Z,92.43
2022-10-01T06:33:16.465Z,92.91
2022-10-01T06:35:49.522Z,93.18
2022-10-01T06:38:21.485Z,93.57
2022-10-01T06:40:55.705Z,94.10
2022-10-01T06:43:26.503Z,94.73
2022-10-01T06:45:56.044Z,95.71
2022-10-01T06:48:25.176Z,96.56
2022-10-01T06:50:58.525Z,98.60
2022-10-01T06:53:29.838Z,99.81
2022-10-01T06:55:58.575Z,99.85
2022-10-01T06:58:27.479Z,100.00
2022-10-01T07:01:01.792Z,99.54
2022-10-01T07:03:31.471Z,98.73
2022-10-01T07:06:08.167Z,98.15
2022-10-01T07:08:36.863Z,97.90
2022-10-01T07:11:06.065Z,98.12
2022-10-01T07:13:34.734Z,97.69
2022-10-01T07:16:05.369Z,97.92
2022-10-01T07:18:34.352Z,97.40
2022-10-01T07:21:04.637Z,98.43
2022-10-01T07:23:33.485Z,98.86
2022-10-01T07:26:04.538Z,98.72
2022-10-01T07:28:33.415Z,98.85
2022-10-01T07:31:11.480Z,97.82
2022-10-01T07:33:42.822Z,97.06
2022-10-01T07:36:13.870Z,96.60
2022-10-01T07:38:43.713Z,97.04
2022-10-01T07:41:13.221Z,96.79
2022-10-01T07:43:43.981Z,96.71
2022-10-01T07:46:16.122Z,96.67
2022-10-01T07:48:46.446Z,97.17
2022-10-01T07:51:18.918Z,97.64
2022-10-01T07:53:48.093Z,98.19
2022-10-01T07:56:16.910Z,98.39
2022-10-01T07:58:45.785Z,99.03
2022-10-01T08:01:19.215Z,99.46
2022-10-01T08:03:54.608Z,100.00
2022-10-01T08:06:25.803Z,100.00
2022-10-01T08:08:54.642Z,100.00
2022-10-01T08:11:24.876Z,100.00
2022-10-01T08:13:57.335Z,100.00
2022-10-01T08:16:29.367Z,100.00
2022-10-01T08:18:58.237Z,100.00
2022-10-01T08:21:30.379Z,100.00
2022-10-01T08:23:59.819Z,100.00
2022-10-01T08:26:29.616Z,100.00
2022-10-01T08:28:58.771Z,100.00
2022-10-01T08:31:32.873Z,100.00
2022-10-01T08:34:01.951Z,100.00
2022-10-01T08:36:36.031Z,100.00
2022-10-01T08:39:05.432Z,100.00
2022-10-01T08:41:50.976Z,100.00
2022-10-01T08:44:27.967Z,100.00
2022-10-01T08:47:03.210Z,100.00
2022-10-01T08:49:43.400Z,100.00
2022-10-01T08:52:24.587Z,100.00
2022-10-01T08:54:59.195Z,100.00
2022-10-01T08:57:36.449Z,100.00
2022-10-01T09:00:14.749Z,100.00
2022-10-01T09:02:46.608Z,100.00
2022-10-01T09:05:26.108Z,100.00
2022-10-01T09:08:24.086Z,100.00
2022-10-01T09:11:02.711Z,100.00
2022-10-01T09:13:57.902Z,100.00
2022-10-01T09:20:05.334Z,100.00
2022-10-01T09:22:42.152Z,100.00
2022-10-01T09:25:22.810Z,100.00
2022-10-01T09:27:53.528Z,100.00
2022-10-01T09:30:29.335Z,100.00
2022-10-01T09:33:05.373Z,100.00
2022-10-01T09:35:44.471Z,100.00
2022-10-01T09:38:24.299Z,100.00
2022-10-01T09:40:57.141Z,100.00
2022-10-01T09:43:31.276Z,100.00
2022-10-01T09:46:07.383Z,100.00
2022-10-01T09:48:47.085Z,100.00
2022-10-01T09:51:22.270Z,100.00
2022-10-01T09:54:05.422Z,100.00
2022-10-01T09:56:48.562Z,100.00
2022-10-01T09:59:28.391Z,100.00
2022-10-01T10:02:04.051Z,100.00
2022-10-01T10:04:33.611Z,100.00
2022-10-01T10:07:08.859Z,100.00
2022-10-01T10:09:38.726Z,100.00
2022-10-01T10:12:26.704Z,100.00
2022-10-01T10:14:59.288Z,100.00
2022-10-01T10:17:29.977Z,100.00
2022-10-01T10:20:01.497Z,100.00
2022-10-01T10:22:34.114Z,100.00
2022-10-01T10:25:15.746Z,100.00
2022-10-01T10:28:02.957Z,100.00
2022-10-01T10:30:32.575Z,100.00
2022-10-01T10:33:09.000Z,100.00
2022-10-01T10:35:38.596Z,100.00
2022-10-01T10:38:09.086Z,100.00
2022-10-01T10:40:45.848Z,100.00
2022-10-01T10:43:25.859Z,100.00
2022-10-01T10:45:56.904Z,100.00
2022-10-01T10:48:33.128Z,100.00
2022-10-01T10:51:04.016Z,100.00
2022-10-01T10:53:54.823Z,100.00
2022-10-01T10:56:26.238Z,100.00
2022-10-01T10:59:10.708Z,100.00
2022-10-01T11:01:45.559Z,100.00
2022-10-01T11:04:29.827Z,100.00
2022-10-01T11:07:02.842Z,100.00
2022-10-01T11:09:48.976Z,100.00
2022-10-01T11:12:36.832Z,100.00
2022-10-01T11:15:33.287Z,100.00
2022-10-01T11:18:25.050Z,100.00
2022-10-01T11:21:13.441Z,100.00
2022-10-01T11:24:19.590Z,100.00
2022-10-01T11:26:59.327Z,100.00
2022-10-01T11:29:46.414Z,100.00
2022-10-01T11:32:34.798Z,100.00
2022-10-01T11:35:42.854Z,100.00
2022-10-01T11:38:44.611Z,100.00
2022-10-01T11:41:36.511Z,100.00
2022-10-01T11:44:16.073Z,100.00
2022-10-01T11:47:02.268Z,100.00
2022-10-01T11:49:52.079Z,100.00
2022-10-01T11:52:38.854Z,100.00
2022-10-01T11:55:39.116Z,100.00
2022-10-01T11:58:35.614Z,100.00
2022-10-01T12:01:10.430Z,100.00
2022-10-01T12:03:57.790Z,100.00
2022-10-01T12:06:38.053Z,100.00
2022-10-01T12:09:19.331Z,100.00
2022-10-01T12:12:01.551Z,100.00
2022-10-01T12:14:40.303Z,100.00
2022-10-01T12:17:20.405Z,100.00
2022-10-01T12:19:55.004Z,100.00
2022-10-01T12:22:31.203Z,100.00
2022-10-01T12:25:03.194Z,100.00
2022-10-01T12:27:54.850Z,100.00
2022-10-01T12:30:29.307Z,100.00
2022-10-01T12:33:45.421Z,100.00
2022-10-01T12:36:32.581Z,100.00
2022-10-01T12:39:25.129Z,100.00
2022-10-01T12:42:14.139Z,100.00
2022-10-01T12:45:04.435Z,100.00
2022-10-01T12:47:48.458Z,100.00
2022-10-01T12:50:33.452Z,100.00
2022-10-01T12:53:26.958Z,100.00
2022-10-01T12:56:17.582Z,100.00
2022-10-01T12:59:26.653Z,100.00
2022-10-01T13:02:22.785Z,100.00
2022-10-01T13:05:20.530Z,100.00
2022-10-01T13:08:06.427Z,100.00
2022-10-01T13:10:53.811Z,100.00
2022-10-01T13:13:27.633Z,100.00
2022-10-01T13:16:12.961Z,100.00
2022-10-01T13:18:58.568Z,100.00
2022-10-01T13:21:41.846Z,100.00
2022-10-01T13:24:20.477Z,100.00
2022-10-01T13:26:58.401Z,100.00
2022-10-01T13:29:46.611Z,100.00
2022-10-01T13:32:38.193Z,100.00
2022-10-01T13:35:31.620Z,100.00
2022-10-01T13:38:14.591Z,100.00
2022-10-01T13:40:44.982Z,100.00
2022-10-01T13:43:21.175Z,100.00
2022-10-01T13:45:55.516Z,100.00
2022-10-01T13:48:29.440Z,100.00
2022-10-01T13:51:03.180Z,100.00
2022-10-01T13:53:37.629Z,100.00
2022-10-01T13:56:07.056Z,100.00
2022-10-01T13:58:41.582Z,100.00
2022-10-01T14:01:39.956Z,100.00
2022-10-01T14:04:25.157Z,96.70
2022-10-01T14:06:59.560Z,94.24
2022-10-01T14:09:37.657Z,95.93
2022-10-01T14:12:33.021Z,100.00
2022-10-01T14:15:32.511Z,100.00
2022-10-01T14:18:08.746Z,99.12
2022-10-01T14:20:53.648Z,100.00
2022-10-01T14:23:32.769Z,100.00
2022-10-01T14:26:17.053Z,100.00
2022-10-01T14:28:58.783Z,100.00
2022-10-01T14:31:50.792Z,100.00
2022-10-01T14:34:49.955Z,100.00
2022-10-01T14:37:21.196Z,100.00
2022-10-01T14:40:04.223Z,100.00
2022-10-01T14:42:33.011Z,100.00
2022-10-01T14:45:01.995Z,100.00
2022-10-01T14:47:35.683Z,100.00
2022-10-01T14:50:14.286Z,100.00
2022-10-01T14:52:51.105Z,100.00
2022-10-01T14:55:25.931Z,100.00
2022-10-01T14:57:58.160Z,100.00
2022-10-01T15:00:33.190Z,100.00
2022-10-01T15:03:13.690Z,100.00
2022-10-01T15:05:54.010Z,100.00
2022-10-01T15:08:37.517Z,100.00
2022-10-01T15:11:13.210Z,100.00
2022-10-01T15:13:47.243Z,100.00
2022-10-01T15:16:19.244Z,100.00
2022-10-01T15:18:53.797Z,100.00
2022-10-01T15:21:32.505Z,100.00
2022-10-01T15:24:04.872Z,100.00
2022-10-01T15:26:37.593Z,100.00
2022-10-01T15:29:15.099Z,100.00
2022-10-01T15:31:46.950Z,100.00
2022-10-01T15:34:20.564Z,100.00
2022-10-01T15:36:52.697Z,100.00
2022-10-01T15:39:32.103Z,100.00
2022-10-01T15:42:07.266Z,100.00
2022-10-01T15:44:47.425Z,100.00
2022-10-01T15:47:29.512Z,100.00
2022-10-01T15:50:17.889Z,100.00
2022-10-01T15:53:18.689Z,100.00
2022-10-01T15:55:52.664Z,100.00
2022-10-01T15:58:27.098Z,100.00
2022-10-01T16:01:04.644Z,100.00
2022-10-01T16:03:37.728Z,100.00
2022-10-01T16:06:19.988Z,100.00
2022-10-01T16:09:06.875Z,100.00
2022-10-01T16:11:55.203Z,100.00
2022-10-01T16:14:42.391Z,100.00
2022-10-01T16:17:31.794Z,100.00
2022-10-01T16:20:23.828Z,100.00
2022-10-01T16:22:53.613Z,100.00
2022-10-01T16:25:34.330Z,100.00
2022-10-01T16:28:06.781Z,100.00
2022-10-01T16:30:36.346Z,100.00
2022-10-01T16:33:06.223Z,100.00
2022-10-01T16:35:38.245Z,100.00
2022-10-01T16:38:08.496Z,100.00
2022-10-01T16:40:44.101Z,100.00
2022-10-01T16:43:23.163Z,100.00
2022-10-01T16:45:53.467Z,100.00
2022-10-01T16:48:23.878Z,100.00
2022-10-01T16:50:53.967Z,100.00
2022-10-01T16:53:24.939Z,100.00
2022-10-01T16:55:56.592Z,100.00
2022-10-01T16:58:28.820Z,100.00
2022-10-01T17:00:58.211Z,100.00
2022-10-01T17:03:29.171Z,100.00
2022-10-01T17:05:59.093Z,100.00
2022-10-01T17:08:27.964Z,100.00
2022-10-01T17:11:02.269Z,100.00
2022-10-01T17:13:34.710Z,100.00
2022-10-01T17:16:05.106Z,100.00
2022-10-01T17:18:35.249Z,100.00
2022-10-01T17:21:05.949Z,100.00
2022-10-01T17:23:36.280Z,100.00
2022-10-01T17:26:09.734Z,100.00
2022-10-01T17:28:38.727Z,100.00
2022-10-01T17:31:12.164Z,100.00
2022-10-01T17:33:43.747Z,100.00
2022-10-01T17:36:13.357Z,100.00
2022-10-01T17:38:43.064Z,100.00
2022-10-01T17:41:13.760Z,100.00
2022-10-01T17:43:42.709Z,100.00
2022-10-01T17:46:11.800Z,100.00
2022-10-01T17:48:42.389Z,100.00
2022-10-01T17:51:15.788Z,100.00
2022-10-01T17:53:45.729Z,100.00
2022-10-01T17:56:33.498Z,100.00
2022-10-01T17:59:08.706Z,100.00
2022-10-01T18:01:37.319Z,100.00
2022-10-01T18:04:13.486Z,100.00
2022-10-01T18:06:44.007Z,100.00
2022-10-01T18:09:13.013Z,100.00
2022-10-01T18:11:47.359Z,100.00
2022-10-01T18:14:16.666Z,100.00
2022-10-01T18:16:45.650Z,100.00
2022-10-01T18:22:13.428Z,100.00
2022-10-01T18:24:43.557Z,100.00
2022-10-01T18:27:16.461Z,100.00
2022-10-01T18:29:45.342Z,100.00
2022-10-01T18:32:20.805Z,100.00
2022-10-01T18:34:56.209Z,100.00
2022-10-01T18:37:37.586Z,100.00
2022-10-01T18:40:17.347Z,100.00
2022-10-01T18:42:54.075Z,100.00
2022-10-01T18:45:48.163Z,100.00
2022-10-01T18:48:52.604Z,100.00
2022-10-01T18:51:40.157Z,100.00
2022-10-01T18:54:40.942Z,100.00
2022-10-01T18:57:28.050Z,100.00
2022-10-01T19:00:12.409Z,100.00
2022-10-01T19:03:02.073Z,100.00
2022-10-01T19:06:40.814Z,100.00
2022-10-01T19:09:41.400Z,100.00
2022-10-01T19:12:38.982Z,100.00
2022-10-01T19:15:24.257Z,100.00
2022-10-01T19:18:16.695Z,100.00
2022-10-01T19:21:05.862Z,100.00
2022-10-01T19:24:24.972Z,100.00
2022-10-01T19:27:05.133Z,100.00
2022-10-01T19:30:07.290Z,100.00
2022-10-01T19:32:46.044Z,100.00
2022-10-01T19:35:21.045Z,100.00
2022-10-01T19:37:56.548Z,100.00
2022-10-01T19:40:36.298Z,100.00
2022-10-01T19:43:20.073Z,100.00
2022-10-01T19:45:58.343Z,100.00
2022-10-01T19:48:45.312Z,100.00
2022-10-01T19:51:21.131Z,100.00
2022-10-01T19:54:01.446Z,100.00
2022-10-01T19:56:40.609Z,100.00
2022-10-01T19:59:16.012Z,100.00
2022-10-01T20:01:55.497Z,100.00
2022-10-01T20:04:38.416Z,100.00
2022-10-01T20:07:18.797Z,100.00
2022-10-01T20:09:54.654Z,100.00
2022-10-01T20:12:37.508Z,100.00
2022-10-01T20:15:23.893Z,100.00
2022-10-01T20:18:13.381Z,100.00
2022-10-01T20:21:03.333Z,100.00
2022-10-01T20:23:47.016Z,100.00
2022-10-01T20:26:39.153Z,100.00
2022-10-01T20:29:43.752Z,100.00
2022-10-01T20:32:23.635Z,100.00
2022-10-01T20:35:13.641Z,100.00
2022-10-01T20:38:08.666Z,100.00
2022-10-01T20:40:49.655Z,100.00
2022-10-01T20:43:32.375Z,100.00
2022-10-01T20:46:11.309Z,100.00
2022-10-01T20:48:46.530Z,100.00
2022-10-01T20:51:25.424Z,100.00
2022-10-01T20:54:04.950Z,100.00
2022-10-01T20:56:40.285Z,100.00
2022-10-01T20:59:18.320Z,100.00
2022-10-01T21:02:02.565Z,100.00
2022-10-01T21:04:39.091Z,100.00
2022-10-01T21:07:29.183Z,100.00
2022-10-01T21:10:04.236Z,100.00
2022-10-01T21:12:41.381Z,100.00
2022-10-01T21:15:15.599Z,100.00
2022-10-01T21:17:59.132Z,100.00
2022-10-01T21:20:49.785Z,100.00
2022-10-01T21:23:42.143Z,100.00
2022-10-01T21:26:25.573Z,100.00
2022-10-01T21:29:27.414Z,100.00
2022-10-01T21:32:17.726Z,100.00
2022-10-01T21:35:01.729Z,100.00
2022-10-01T21:37:41.421Z,100.00
2022-10-01T21:40:22.324Z,100.00
2022-10-01T21:43:02.936Z,100.00
2022-10-01T21:45:47.499Z,100.00
2022-10-01T21:48:41.662Z,100.00
2022-10-01T21:51:19.186Z,100.00
2022-10-01T21:54:30.059Z,100.00
2022-10-01T21:57:30.245Z,100.00
2022-10-01T22:00:19.642Z,100.00
2022-10-01T22:03:07.713Z,100.00
2022-10-01T22:05:50.386Z,100.00
2022-10-01T22:08:49.646Z,100.00
2022-10-01T22:11:23.509Z,100.00
2022-10-01T22:13:58.563Z,100.00
2022-10-01T22:16:36.100Z,100.00
2022-10-01T22:19:13.018Z,100.00
2022-10-01T22:21:46.259Z,100.00
2022-10-01T22:24:20.549Z,100.00
2022-10-01T22:26:56.307Z,100.00
2022-10-01T22:29:31.926Z,100.00
2022-10-01T22:32:06.456Z,100.00
2022-10-01T22:34:40.384Z,100.00
2022-10-01T22:37:17.747Z,100.00
2022-10-01T22:39:54.801Z,100.00
2022-10-01T22:42:33.276Z,100.00
2022-10-01T22:45:13.220Z,100.00
2022-10-01T22:48:14.036Z,100.00
2022-10-01T22:51:07.808Z,100.00
2022-10-01T22:54:14.068Z,100.00
2022-10-01T22:56:56.093Z,100.00
2022-10-01T22:59:41.280Z,100.00
2022-10-01T23:02:25.694Z,100.00
2022-10-01T23:05:13.242Z,100.00
2022-10-01T23:07:57.853Z,100.00
2022-10-01T23:10:39.491Z,100.00
2022-10-01T23:13:32.526Z,100.00
2022-10-01T23:16:15.203Z,100.00
2022-10-01T23:19:00.525Z,100.00
2022-10-01T23:21:45.288Z,100.00
2022-10-01T23:24:39.608Z,100.00
2022-10-01T23:27:32.110Z,100.00
2022-10-01T23:30:11.842Z,100.00
2022-10-01T23:33:14.291Z,100.00
2022-10-01T23:35:58.837Z,100.00
2022-10-01T23:39:10.445Z,100.00
2022-10-01T23:41:48.174Z,100.00
2022-10-01T23:44:31.663Z,100.00
2022-10-01T23:47:07.706Z,100.00
2022-10-01T23:49:42.610Z,100.00
2022-10-01T23:52:22.688Z,100.00
2022-10-01T23:55:27.087Z,100.00
2022-10-01T23:58:03.347Z,100.00
